• Join FlightAware (Why Join?)
  • Login
  • US Flag 
09:18PM EDT


 

Airport Tracker/Info


-or-


 

Live Flight TrackerFlight Track Log ✈ CNS33 ✈ 04-May-2013 ✈ KMMU - KMWC

Flight Track Log - Related Links

Times and Time Zones

All times are in EDT time to prevent confusion due to time zone crossing. See the CNS33 flight status page for this flight to view local times or setup timezone preferences in your user account.

Time Position Orientation Groundspeed Altitude Reporting Facility
EDT Latitude Longitude Course Direction KTS MPH feet Rate Location/Type
02:01PM 40.7667 -74.4333 180° South 110 127 1,500  Level New York TRACON
02:02PM 40.7333 -74.4333 180° South 133 153 2,800 1,440 Climbing New York TRACON
02:03PM 40.7333 -74.4000 90° East 143 165 4,400 1,560 Climbing New York TRACON
02:04PM 40.7667 -74.4167 339° North 155 178 6,000 1,440 Climbing New York TRACON
02:05PM 40.8000 -74.4500 323° Northwest 157 181 7,500 1,320 Climbing New York TRACON
02:06PM 40.8500 -74.4833 333° Northwest 156 180 8,800 1,140 Climbing New York TRACON
02:07PM 40.8836 -74.5092 330° Northwest 173 199 9,700 1,020 Climbing New York Center
02:08PM 40.9306 -74.5447 330° Northwest 185 213 10,800 1,080 Climbing New York Center
02:09PM 40.9753 -74.5747 333° Northwest 202 232 11,900 1,080 Climbing New York Center
02:10PM 41.0181 -74.6075 330° Northwest 192 221 13,000 960 Climbing New York Center
02:11PM 41.0628 -74.6403 331° Northwest 197 227 13,900 420 Climbing New York Center
02:12PM 41.1239 -74.6850 331° Northwest 212 244 13,900  Level New York Center
02:13PM 41.1611 -74.7533 306° West 241 277 13,900 540 Level New York Center
02:14PM 41.1997 -74.8411 300° West 255 293 15,000 1,200 Climbing New York Center
02:15PM 41.2269 -74.8978 303° West 228 262 16,300 1,260 Climbing New York Center
02:16PM 41.2539 -74.9631 299° West 203 234 17,600 900 Climbing New York Center
02:17PM 41.2789 -75.0197 300° West 186 214 18,200 660 Climbing New York Center
02:18PM 41.3058 -75.0822 300° West 191 220 19,000 840 Climbing New York Center
02:19PM 41.3306 -75.1447 298° West 191 220 19,900 840 Climbing New York Center
02:20PM 41.3575 -75.2072 300° West 191 220 20,700 780 Climbing New York Center
02:21PM 41.3822 -75.2642 300° West 186 214 21,500 600 Climbing New York Center
02:22PM 41.4072 -75.3239 299° West 186 214 22,000 240 Climbing New York Center
02:23PM 41.4378 -75.3922 301° West 198 228 22,000  Level New York Center
02:24PM 41.4681 -75.4664 299° West 212 244 22,000  Level New York Center
02:25PM 41.4961 -75.5514 294° West 236 272 22,000  Level New York Center
02:26PM 41.5197 -75.6361 290° West 246 283 22,000  Level New York Center
02:27PM 41.5472 -75.7242 293° West 252 290 22,000  Level New York Center
02:28PM 41.5689 -75.8061 307° West 257 296 22,000  Level New York Center
02:29PM 41.5942 -75.8969 290° West 257 296 22,000  Level New York Center
02:30PM 41.6194 -75.9847 291° West 257 296 22,000  Level New York Center
02:31PM 41.6444 -76.0756 290° West 257 296 22,000  Level New York Center
02:32PM 41.6717 -76.1667 292° West 257 296 22,000  Level New York Center
02:33PM 41.6967 -76.2575 290° West 257 296 22,000  Level New York Center
02:34PM 41.7217 -76.3486 290° West 257 296 22,000  Level New York Center
02:35PM 41.7444 -76.4367 289° West 257 296 22,000  Level New York Center
02:36PM 41.7714 -76.5278 292° West 257 296 22,000  Level New York Center
02:37PM 41.7961 -76.6192 290° West 257 296 22,000  Level New York Center
02:39PM 41.8453 -76.7947 291° West 259 298 22,000  Level Cleveland Center
02:40PM 41.8714 -76.8853 291° West 264 304 22,000  Level Cleveland Center
02:41PM 41.8950 -76.9761 289° West 264 304 22,000  Level Cleveland Center
02:42PM 41.9208 -77.0694 290° West 264 304 22,000  Level Cleveland Center
02:43PM 41.9467 -77.1603 291° West 264 304 22,000  Level Cleveland Center
02:44PM 41.9703 -77.2539 289° West 264 304 22,000  Level Cleveland Center
02:45PM 41.9956 -77.3447 291° West 264 304 22,000  Level Cleveland Center
02:46PM 42.0192 -77.4358 289° West 264 304 22,000  Level Cleveland Center
02:47PM 42.0361 -77.5300 284° West 264 304 22,000  Level Cleveland Center
02:48PM 42.0553 -77.6244 285° West 259 298 22,000  Level Cleveland Center
02:49PM 42.0703 -77.7189 282° West 259 298 22,000  Level Cleveland Center
02:50PM 42.0872 -77.8131 284° West 259 298 22,000  Level Cleveland Center
02:51PM 42.1039 -77.9075 283° West 259 298 22,000  Level Cleveland Center
02:52PM 42.1208 -78.0047 283° West 259 298 22,000  Level Cleveland Center
02:53PM 42.1397 -78.1022 285° West 259 298 22,000  Level Cleveland Center
02:54PM 42.1519 -78.1969 280° West 259 298 22,000  Level Cleveland Center
02:55PM 42.1686 -78.2972 283° West 259 298 22,000  Level Cleveland Center
02:56PM 42.1872 -78.3917 285° West 264 304 22,000  Level Cleveland Center
02:57PM 42.2058 -78.4919 284° West 264 304 22,000  Level Cleveland Center
02:58PM 42.2219 -78.5869 283° West 264 304 22,000  Level Cleveland Center
02:59PM 42.2383 -78.6844 283° West 264 304 22,000  Level Cleveland Center
03:00PM 42.2544 -78.7822 283° West 264 304 22,000  Level Cleveland Center
03:01PM 42.2706 -78.8772 283° West 269 310 22,000  Level Cleveland Center
03:02PM 42.2844 -78.9778 281° West 269 310 22,000  Level Cleveland Center
03:03PM 42.3003 -79.0756 282° West 269 310 22,000  Level Cleveland Center
03:04PM 42.3183 -79.1847 283° West 274 315 22,000  Level Cleveland Center
03:05PM 42.3342 -79.2828 282° West 274 315 22,000  Level Cleveland Center
03:06PM 42.3519 -79.3806 284° West 274 315 22,000  Level Cleveland Center
03:07PM 42.3653 -79.4789 280° West 274 315 22,000  Level Cleveland Center
03:08PM 42.3828 -79.5769 284° West 274 315 22,000  Level Cleveland Center
03:09PM 42.3961 -79.6722 281° West 274 315 22,000  Level Cleveland Center
03:10PM 42.4114 -79.7706 282° West 274 315 22,000  Level Cleveland Center
03:11PM 42.4289 -79.8658 284° West 274 315 22,000  Level Cleveland Center
03:12PM 42.4439 -79.9642 282° West 274 315 22,000  Level Cleveland Center
03:13PM 42.4592 -80.0653 282° West 274 315 22,000  Level Cleveland Center
03:14PM 42.4719 -80.1525 281° West 274 315 22,000  Level Cleveland Center
03:15PM 42.4889 -80.2508 283° West 274 315 22,000  Level Cleveland Center
03:16PM 42.5017 -80.3494 280° West 274 315 22,000  Level Cleveland Center
03:17PM 42.5186 -80.4481 283° West 274 315 22,000  Level Cleveland Center
03:18PM 42.5331 -80.5494 281° West 274 315 22,000  Level Cleveland Center
03:19PM 42.5478 -80.6481 281° West 274 315 22,000  Level Cleveland Center
03:20PM 42.5622 -80.7439 282° West 274 315 22,000  Level Cleveland Center
03:21PM 42.5786 -80.8539 281° West 274 315 22,000  Level Cleveland Center
03:22PM 42.5931 -80.9556 281° West 274 315 22,000  Level Cleveland Center
03:23PM 42.6072 -81.0542 281° West 280 322 22,000  Level Cleveland Center
03:24PM 42.6214 -81.1558 281° West 272 313 22,000  Level Cleveland Center
03:25PM 42.6353 -81.2547 281° West 272 313 22,000  Level Cleveland Center
03:26PM 42.6514 -81.3511 283° West 278 320 22,000  Level Cleveland Center
03:27PM 42.6653 -81.4500 281° West 278 320 22,000  Level Cleveland Center
03:28PM 42.6792 -81.5519 281° West 278 320 22,000  Level Cleveland Center
03:29PM 42.6928 -81.6539 280° West 278 320 22,000  Level Cleveland Center
03:30PM 42.7086 -81.7500 283° West 278 320 22,000  Level Cleveland Center
03:31PM 42.7200 -81.8519 279° West 270 311 22,000  Level Cleveland Center
03:32PM 42.7333 -81.9569 280° West 276 318 22,000  Level Cleveland Center
03:33PM 42.7467 -82.0561 280° West 276 318 22,000  Level Cleveland Center
03:34PM 42.7619 -82.1583 282° West 276 318 22,000  Level Cleveland Center
03:35PM 42.7772 -82.2578 282° West 276 318 22,000  Level Cleveland Center
03:36PM 42.7903 -82.3600 280° West 276 318 22,000  Level Cleveland Center
03:37PM 42.8033 -82.4594 280° West 276 318 22,000  Level Cleveland Center
03:38PM 42.8164 -82.5589 280° West 276 318 22,000  Level Cleveland Center
03:39PM 42.8292 -82.6583 280° West 276 318 22,000  Level Cleveland Center
03:40PM 42.8419 -82.7578 280° West 276 318 22,000  Level Cleveland Center
03:41PM 42.8567 -82.8603 281° West 276 318 22,000  Level Cleveland Center
03:42PM 42.8692 -82.9656 279° West 276 318 22,000  Level Cleveland Center
03:43PM 42.8817 -83.0653 280° West 276 318 22,000  Level Cleveland Center
03:44PM 42.8939 -83.1650 280° West 276 318 22,000  Level Cleveland Center
03:45PM 42.9061 -83.2675 279° West 276 318 22,000  Level Cleveland Center
03:46PM 42.9183 -83.3731 279° West 276 318 22,000  Level Cleveland Center
03:47PM 42.9283 -83.4697 278° West 276 318 22,000  Level Cleveland Center
03:48PM 42.9403 -83.5725 279° West 276 318 22,000  Level Cleveland Center
03:49PM 42.9503 -83.6722 278° West 276 318 22,000  Level Cleveland Center
03:50PM 42.9619 -83.7750 279° West 276 318 22,000  Level Cleveland Center
03:51PM 42.9717 -83.8778 277° West 276 318 22,000  Level Cleveland Center
03:52PM 42.9811 -83.9803 277° West 276 318 22,000  Level Cleveland Center
03:53PM 42.9928 -84.0833 279° West 276 318 22,000  Level Cleveland Center
03:54PM 43.0022 -84.1858 277° West 276 318 22,000  Level Cleveland Center
03:55PM 43.0114 -84.2858 277° West 276 318 22,000  Level Cleveland Center
03:56PM 43.0247 -84.3889 280° West 276 318 22,000  Level Cleveland Center
03:56PM 43.0311 -84.4733 276° West 276 318 22,000  Level Chicago Center
03:57PM 43.0417 -84.5783 278° West 279 321 22,000  Level Chicago Center
03:59PM 43.0533 -84.7022 277° West 277 319 22,000  Level Chicago Center
04:00PM 43.0633 -84.8067 278° West 278 320 22,000  Level Chicago Center
04:01PM 43.0728 -84.9097 277° West 275 316 22,000  Level Chicago Center
04:02PM 43.0817 -85.0131 277° West 275 316 22,000  Level Chicago Center
04:03PM 43.0917 -85.1183 277° West 276 318 22,000  Level Chicago Center
04:04PM 43.1011 -85.2236 277° West 281 323 22,000  Level Chicago Center
04:05PM 43.1100 -85.3286 277° West 280 322 22,000  Level Chicago Center
04:06PM 43.1211 -85.4556 277° West 282 325 22,000  Level Chicago Center
04:07PM 43.1303 -85.5611 277° West 282 325 22,000  Level Chicago Center
04:08PM 43.1392 -85.6656 277° West 279 321 22,000  Level Chicago Center
04:09PM 43.1478 -85.7703 276° West 279 321 22,000  Level Chicago Center
04:10PM 43.1567 -85.8747 277° West 281 323 22,000  Level Chicago Center
04:11PM 43.1675 -85.9992 277° West 281 323 22,000  Level Chicago Center
04:12PM 43.1703 -86.1033 272° West 280 322 22,000 -120 Level Chicago Center
04:13PM 43.1681 -86.2072 268° West 278 320 21,800 -720 Descending Chicago Center
04:14PM 43.1661 -86.3183 269° West 288 331 20,600 -1,140 Descending Chicago Center
04:15PM 43.1642 -86.4361 269° West 306 352 19,500 -1,260 Descending Chicago Center
04:16PM 43.1617 -86.5761 269° West 309 356 18,100 -1,260 Descending Chicago Center
04:17PM 43.1592 -86.6911 268° West 305 351 17,000 -1,080 Descending Chicago Center
04:18PM 43.1569 -86.8050 269° West 302 348 15,900 -1,140 Descending Chicago Center
04:19PM 43.1536 -86.9183 268° West 300 345 14,700 -1,140 Descending Chicago Center
04:20PM 43.1503 -87.0308 268° West 297 342 13,600 -1,260 Descending Chicago Center
04:21PM 43.1464 -87.1447 267° West 300 345 12,200 -1,320 Descending Chicago Center
04:22PM 43.1417 -87.2561 267° West 294 338 10,900 -1,380 Descending Chicago Center
04:23PM 43.1369 -87.3850 267° West 285 328 9,400 -1,380 Descending Chicago Center
04:24PM 43.1328 -87.4931 267° West 277 319 8,100 -1,260 Descending Chicago Center
04:25PM 43.1292 -87.5947 267° West 271 312 6,900 -1,260 Descending Chicago Center
04:26PM 43.1233 -87.6944 265° West 264 304 5,600 -1,320 Descending Chicago Center
04:27PM 43.1206 -87.7947 268° West 263 303 4,300 -1,260 Descending Chicago Center
04:28PM 43.1211 -87.8883 270° West 253 291 3,100 -660 Descending Chicago Center
04:29PM 43.1322 -87.9669 281° West 230 265 3,000 -600 Descending Chicago Center
04:30PM 43.1464 -88.0417 285° West 191 220 1,900 -900 Descending Chicago Center
04:31PM 43.1261 -88.0469 191° South 139 160 1,200 -720 Descending Chicago Center
04:33PM 43.1104 -88.0344 160° South  Level Estimated